Ana Sayfa
METAR-TAF:

METAR-TAF

Havaalanları :

Longyearbyen, Norveç

Enlem: 78-15N, Boylam: 015-28E, yükseklik: 2 m

Güncel hava durumu gözlemi

Rapor saat 14:50 UTC de 33 dakika önce yapıldı.
Rüzgar doğu/güneydoğudan 9 kt
Sıcaklık -19°C
Nem 59%
Basınç 1013 hPa
Görüş mesafesi 10 km veya daha fazla
2500 ft yükseklikte az bulutlu

METAR: ENSB 201450Z 12009KT 9999 FEW025 M19/M25 Q1013 RMK WIND 1400FT 11007KT

Saat: 16:23 (15:23 UTC)

Tahmin

Ayın 20'si saat 12 UTC'den ayın 21'si saat 12 UTC'ye kadar geçerli Tahmin
Rüzgar doğu/güneydoğudan 8 kt
Görüş mesafesi 10 km veya daha fazla
1500 ft yükseklikte az bulutlu

TAF: ENSB 2012/2112 12008KT 9999 FEW015

4.000'den fazla havaalanı için hava durumu gözlemleri ve tahminleri (METAR ve TAF raporları).

Kullanılabilir istasyonlar harita üzerinde sarı ve kırmızı noktalarla gösterilir.

İstasyonun adını görmek için fareyi noktanın üzerinde gezdirin.

Sonrasında hava gözlem ve tahminlerini görmek için tıklayın.

Haritayı değiştirmek için: yaklaştırmak için siyah artı işaretli yeşil düğmeye ve uzaklaştırmak için de eksi işaretli düğmeye hızla tıklayın; bitişik haritalar için yeşil okları kullanın.


METAR-TAF: